Time;durP1;ratioP1;P1;durP2;ratioP2;P2;SDS_P1;SDS_P2;PMS_P1;PMS_P2;Temp;Humidity;BMP_temperature;BMP_pressure;BME280_temperature;BME280_humidity;BME280_pressure;Samples;Min_cycle;Max_cycle;Signal;HPM_P1;HPM_P2
2022/05/18 00:00:56;;;;;;;41.97;8.55;;;;;;;12.66;100.00;100312.88;5152978;27;20082;-84
2022/05/18 00:03:28;;;;;;;44.03;8.43;;;;;;;12.64;100.00;100312.09;5153793;27;20130;-84
2022/05/18 00:05:54;;;;;;;40.58;8.60;;;;;;;12.54;100.00;100314.34;5152785;27;20468;-84
2022/05/18 00:08:21;;;;;;;53.65;10.25;;;;;;;12.50;100.00;100298.81;5151310;27;20039;-84
2022/05/18 00:10:50;;;;;;;42.70;7.63;;;;;;;12.77;100.00;100300.94;5154558;27;20111;-84
2022/05/18 00:13:18;;;;;;;32.03;6.95;;;;;;;12.88;100.00;100302.03;5152980;27;20050;-85
2022/05/18 00:15:46;;;;;;;38.60;7.00;;;;;;;13.05;100.00;100339.69;5151802;27;20065;-85
2022/05/18 00:18:13;;;;;;;26.27;5.63;;;;;;;13.23;100.00;100335.25;5152276;27;20050;-84
2022/05/18 00:20:40;;;;;;;38.53;9.32;;;;;;;13.06;100.00;100339.63;5148264;27;20047;-85
2022/05/18 00:23:07;;;;;;;27.77;6.05;;;;;;;13.19;100.00;100331.06;5131318;27;20392;-85
2022/05/18 00:25:37;;;;;;;25.02;5.65;;;;;;;13.16;100.00;100334.72;5131167;27;20050;-85
2022/05/18 00:28:05;;;;;;;23.77;5.35;;;;;;;13.32;100.00;100336.56;5133083;27;20545;-86
2022/05/18 00:30:33;;;;;;;23.80;5.20;;;;;;;13.42;100.00;100317.53;5144434;27;20476;-85
2022/05/18 00:33:05;;;;;;;29.75;5.28;;;;;;;13.48;100.00;100346.13;5154283;27;20400;-85
2022/05/18 00:35:33;;;;;;;27.02;5.47;;;;;;;13.29;100.00;100311.22;5153011;27;20053;-85
2022/05/18 00:38:01;;;;;;;21.23;4.60;;;;;;;13.32;100.00;100315.50;5147184;27;20053;-85
2022/05/18 00:40:28;;;;;;;18.33;4.80;;;;;;;13.39;100.00;100325.59;5152324;27;20057;-85
2022/05/18 00:42:55;;;;;;;15.05;4.22;;;;;;;13.14;100.00;100312.06;5154037;27;20050;-86
2022/05/18 00:45:23;;;;;;;20.67;3.90;;;;;;;13.10;100.00;100308.75;5152462;27;20085;-86
2022/05/18 00:47:51;;;;;;;14.15;3.92;;;;;;;13.17;100.00;100319.78;5152174;27;20468;-85
2022/05/18 00:50:22;;;;;;;10.85;2.95;;;;;;;13.10;100.00;100314.88;5151560;27;20053;-85
2022/05/18 00:53:29;;;;;;;19.35;5.35;;;;;;;13.11;100.00;100348.09;5134710;27;20370;-84
2022/05/18 00:56:03;;;;;;;8.65;3.00;;;;;;;13.18;100.00;100361.78;5142127;27;20049;-86
2022/05/18 00:58:35;;;;;;;14.18;3.55;;;;;;;12.67;100.00;100330.31;5131951;27;20045;-86
2022/05/18 01:01:02;;;;;;;13.52;2.85;;;;;;;13.06;100.00;100363.28;5131510;28;20047;-87
2022/05/18 01:03:35;;;;;;;6.90;2.10;;;;;;;13.15;100.00;100368.97;5140452;27;20053;-84
2022/05/18 01:06:13;;;;;;;6.18;1.80;;;;;;;13.22;100.00;100372.97;5151875;27;20070;-85
2022/05/18 01:08:49;;;;;;;10.07;1.92;;;;;;;13.06;100.00;100379.03;5131351;27;20043;-85
2022/05/18 01:11:17;;;;;;;6.65;2.10;;;;;;;12.84;100.00;100350.44;5132792;27;20552;-86
2022/05/18 01:13:45;;;;;;;8.23;1.50;;;;;;;12.71;100.00;100312.59;5150509;27;20046;-86
2022/05/18 01:16:11;;;;;;;5.50;1.50;;;;;;;12.75;100.00;100324.66;5144213;27;20047;-86
2022/05/18 01:18:39;;;;;;;6.78;1.58;;;;;;;13.06;100.00;100349.28;5132646;27;20050;-86
2022/05/18 01:21:06;;;;;;;5.88;1.75;;;;;;;13.00;100.00;100357.53;5131157;28;20058;-86
2022/05/18 01:23:54;;;;;;;4.57;1.50;;;;;;;13.10;100.00;100380.59;5150986;27;20490;-86
2022/05/18 01:26:30;;;;;;;3.72;1.17;;;;;;;12.94;100.00;100390.19;5152538;27;20400;-86
2022/05/18 01:28:59;;;;;;;4.43;1.20;;;;;;;12.87;100.00;100396.72;5151014;27;20055;-86
2022/05/18 01:32:05;;;;;;;3.63;1.20;;;;;;;12.79;100.00;100391.03;5133973;27;20081;-86
2022/05/18 01:34:34;;;;;;;3.55;1.20;;;;;;;12.66;100.00;100389.03;5144759;27;20045;-86
2022/05/18 01:37:02;;;;;;;3.75;1.10;;;;;;;12.47;100.00;100355.00;5142013;27;20047;-86
2022/05/18 01:39:36;;;;;;;3.95;1.00;;;;;;;12.47;100.00;100362.03;5143682;27;20070;-85
2022/05/18 01:42:14;;;;;;;1.38;0.90;;;;;;;12.63;100.00;100380.47;5155379;27;20050;-86
2022/05/18 01:44:41;;;;;;;1.85;1.00;;;;;;;12.63;100.00;100393.59;5156163;27;20506;-86
2022/05/18 01:47:08;;;;;;;2.22;1.00;;;;;;;12.81;100.00;100397.06;5154864;27;20049;-86
2022/05/18 01:49:39;;;;;;;3.10;1.00;;;;;;;12.63;100.00;100394.44;5142831;27;21041;-86
2022/05/18 01:52:06;;;;;;;3.15;1.00;;;;;;;12.46;100.00;100366.41;5156543;27;20039;-86
2022/05/18 01:54:43;;;;;;;2.83;1.08;;;;;;;12.68;100.00;100395.06;5156231;27;20506;-86
2022/05/18 01:57:10;;;;;;;3.85;1.00;;;;;;;12.76;100.00;100383.31;5142676;27;20047;-85
2022/05/18 01:59:37;;;;;;;2.35;0.90;;;;;;;12.77;100.00;100408.66;5156551;27;20049;-87
2022/05/18 02:02:06;;;;;;;1.30;0.80;;;;;;;12.67;100.00;100413.53;5154738;27;20047;-86
2022/05/18 02:04:34;;;;;;;2.80;1.00;;;;;;;12.36;100.00;100391.47;5152469;27;20066;-87
2022/05/18 02:07:02;;;;;;;1.67;0.90;;;;;;;12.39;100.00;100403.56;5154545;27;20400;-86
2022/05/18 02:09:30;;;;;;;4.03;1.13;;;;;;;12.23;100.00;100391.22;5155718;27;20047;-86
2022/05/18 02:11:57;;;;;;;2.28;1.00;;;;;;;12.32;100.00;100408.28;5155278;27;20049;-85
2022/05/18 02:14:26;;;;;;;3.45;1.00;;;;;;;12.17;100.00;100393.31;5146843;27;20046;-85
2022/05/18 02:16:53;;;;;;;2.58;1.08;;;;;;;12.07;100.00;100399.00;5155051;27;20395;-85
2022/05/18 02:19:20;;;;;;;2.08;1.08;;;;;;;11.89;100.00;100378.88;5156817;27;20053;-86
2022/05/18 02:21:47;;;;;;;1.20;0.80;;;;;;;12.08;100.00;100386.75;5155452;27;20046;-86
2022/05/18 02:24:13;;;;;;;1.83;0.93;;;;;;;12.10;100.00;100411.97;5155239;27;20492;-86
2022/05/18 02:26:40;;;;;;;3.15;0.90;;;;;;;11.86;100.00;100376.41;5144937;27;20469;-86
2022/05/18 02:29:07;;;;;;;2.53;1.10;;;;;;;11.85;100.00;100412.28;5141548;27;20053;-88
2022/05/18 02:31:34;;;;;;;1.98;1.00;;;;;;;11.86;100.00;100405.25;5155348;27;20492;-87
2022/05/18 02:34:02;;;;;;;4.03;1.15;;;;;;;12.07;100.00;100427.84;5154941;27;20043;-87
2022/05/18 02:36:29;;;;;;;3.38;1.35;;;;;;;11.69;100.00;100379.84;5154322;27;20126;-87
2022/05/18 02:38:56;;;;;;;2.80;1.17;;;;;;;11.82;100.00;100428.16;5154420;27;20053;-88
2022/05/18 02:41:22;;;;;;;4.50;1.30;;;;;;;12.08;100.00;100426.94;5154009;27;20042;-87
2022/05/18 02:43:51;;;;;;;2.63;1.25;;;;;;;11.75;100.00;100384.78;5155005;27;20130;-87
2022/05/18 02:46:20;;;;;;;3.75;1.10;;;;;;;12.12;100.00;100441.59;5146351;27;20073;-87
2022/05/18 02:48:48;;;;;;;2.72;1.20;;;;;;;12.13;100.00;100426.72;5142735;27;20122;-86
2022/05/18 02:51:16;;;;;;;2.83;1.10;;;;;;;12.26;100.00;100432.22;5149695;27;20043;-87
2022/05/18 02:53:43;;;;;;;2.58;1.15;;;;;;;11.80;100.00;100406.41;5134615;27;20051;-86
2022/05/18 02:56:14;;;;;;;3.10;1.20;;;;;;;11.78;100.00;100405.63;5132289;27;20042;-86
2022/05/18 02:58:44;;;;;;;3.80;1.30;;;;;;;11.89;100.00;100418.22;5134543;27;20047;-86
2022/05/18 03:01:15;;;;;;;4.80;1.30;;;;;;;12.14;100.00;100454.66;5144772;27;20053;-84
2022/05/18 03:03:44;;;;;;;4.68;1.30;;;;;;;11.99;100.00;100442.28;5140097;27;20047;-85
2022/05/18 03:06:14;;;;;;;3.33;1.10;;;;;;;11.82;100.00;100422.91;5138337;27;20048;-85
2022/05/18 03:08:43;;;;;;;4.03;1.27;;;;;;;11.99;100.00;100447.50;5154256;27;20062;-84
2022/05/18 03:11:11;;;;;;;5.05;1.23;;;;;;;12.00;100.00;100473.69;5135859;27;20074;-84
2022/05/18 03:13:38;;;;;;;4.88;1.20;;;;;;;11.88;100.00;100467.25;5134681;27;20126;-84
2022/05/18 03:16:05;;;;;;;4.97;1.30;;;;;;;12.07;100.00;100476.88;5138440;27;20057;-84
2022/05/18 03:18:32;;;;;;;5.18;1.55;;;;;;;11.71;100.00;100435.69;5154022;27;20051;-86
2022/05/18 03:23:45;;;;;;;3.85;1.30;;;;;;;11.80;100.00;100451.00;5155433;27;20050;-88
2022/05/18 03:26:16;;;;;;;3.30;1.20;;;;;;;11.64;100.00;100439.53;5151944;27;20043;-86
2022/05/18 03:28:45;;;;;;;3.92;1.20;;;;;;;11.61;100.00;100437.06;5141088;27;20400;-86
2022/05/18 03:31:12;;;;;;;4.85;1.52;;;;;;;11.94;100.00;100474.00;5131866;27;20477;-86
2022/05/18 03:33:39;;;;;;;4.38;1.30;;;;;;;11.92;100.00;100481.09;5145720;27;20137;-86
2022/05/18 03:36:09;;;;;;;4.07;1.50;;;;;;;11.62;100.00;100436.97;5148719;27;20047;-86
2022/05/18 03:38:36;;;;;;;2.95;1.20;;;;;;;11.76;100.00;100459.94;5132725;27;20051;-86
2022/05/18 03:41:02;;;;;;;3.65;1.40;;;;;;;11.31;100.00;100412.16;5148170;27;20043;-87
2022/05/18 03:43:29;;;;;;;4.07;1.40;;;;;;;11.57;100.00;100449.44;5149579;27;20051;-87
2022/05/18 03:45:59;;;;;;;4.28;1.38;;;;;;;11.57;100.00;100446.84;5153302;27;20047;-87
2022/05/18 03:48:26;;;;;;;5.60;1.38;;;;;;;11.35;100.00;100442.56;5153978;27;20092;-87
2022/05/18 03:50:55;;;;;;;4.95;2.17;;;;;;;11.68;100.00;100490.91;5155253;27;20058;-87
2022/05/18 03:53:22;;;;;;;6.53;1.60;;;;;;;11.52;100.00;100459.31;5154396;27;20047;-87
2022/05/18 03:55:49;;;;;;;4.95;1.58;;;;;;;11.49;100.00;100480.41;5152563;27;20047;-87
2022/05/18 03:58:16;;;;;;;4.00;1.38;;;;;;;11.53;100.00;100451.38;5152036;27;20039;-87
2022/05/18 04:00:45;;;;;;;4.10;1.40;;;;;;;11.79;100.00;100491.25;5152345;27;20050;-86
2022/05/18 04:03:13;;;;;;;4.95;1.50;;;;;;;11.73;100.00;100502.88;5149635;27;20572;-87
2022/05/18 04:05:40;;;;;;;6.72;1.67;;;;;;;11.43;100.00;100476.28;5152596;27;20059;-87
2022/05/18 04:08:09;;;;;;;5.75;1.65;;;;;;;11.54;100.00;100500.28;5152477;27;20399;-87
2022/05/18 04:10:38;;;;;;;5.22;1.60;;;;;;;11.75;100.00;100513.31;5140344;27;20586;-84
2022/05/18 04:13:07;;;;;;;3.33;1.55;;;;;;;11.75;100.00;100506.28;5131918;27;20047;-85
2022/05/18 04:15:34;;;;;;;5.43;1.52;;;;;;;11.75;100.00;100464.31;5144995;27;20060;-87
2022/05/18 04:18:00;;;;;;;5.35;1.73;;;;;;;11.69;100.00;100490.00;5152717;27;20053;-86
2022/05/18 04:20:28;;;;;;;4.05;1.50;;;;;;;11.71;100.00;100482.91;5154297;27;20043;-86
2022/05/18 04:22:55;;;;;;;7.13;2.33;;;;;;;12.08;100.00;100517.94;5148555;27;20047;-86
2022/05/18 04:25:25;;;;;;;4.60;1.50;;;;;;;11.96;100.00;100511.50;5133145;27;20051;-87
2022/05/18 04:27:52;;;;;;;6.47;1.73;;;;;;;11.69;100.00;100479.50;5131480;27;20045;-87
2022/05/18 04:30:21;;;;;;;4.60;1.60;;;;;;;11.71;100.00;100498.66;5131643;27;20082;-87
2022/05/18 04:32:48;;;;;;;4.75;1.52;;;;;;;12.32;100.00;100501.03;5148373;27;20058;-87
2022/05/18 04:35:19;;;;;;;3.55;1.30;;;;;;;13.31;100.00;100509.22;5153100;27;20047;-86
2022/05/18 04:37:46;;;;;;;6.63;1.88;;;;;;;13.39;100.00;100530.72;5132225;27;20043;-87
2022/05/18 04:40:14;;;;;;;6.05;1.88;;;;;;;12.96;100.00;100514.50;5131616;27;20043;-86
2022/05/18 04:42:41;;;;;;;5.45;1.67;;;;;;;12.80;100.00;100526.69;5131842;27;20057;-86
2022/05/18 04:45:10;;;;;;;6.75;1.67;;;;;;;12.27;100.00;100550.28;5131665;27;20463;-86
2022/05/18 04:47:37;;;;;;;5.13;1.40;;;;;;;12.47;100.00;100549.31;5149907;27;20385;-86
2022/05/18 04:50:06;;;;;;;4.32;1.40;;;;;;;12.07;100.00;100531.97;5153586;27;20057;-86
2022/05/18 04:52:32;;;;;;;7.38;1.67;;;;;;;12.17;100.00;100556.88;5151701;27;20047;-86
2022/05/18 04:54:59;;;;;;;5.18;1.60;;;;;;;12.12;100.00;100538.72;5151993;27;20053;-87
2022/05/18 04:57:26;;;;;;;7.65;1.70;;;;;;;12.25;100.00;100562.63;5151556;27;20055;-88
2022/05/18 04:59:53;;;;;;;3.45;1.17;;;;;;;12.32;100.00;100527.28;5151630;27;20448;-87
2022/05/18 05:02:20;;;;;;;9.05;1.58;;;;;;;12.17;100.00;100542.91;5151873;27;20057;-86
2022/05/18 05:04:47;;;;;;;4.95;1.38;;;;;;;12.18;100.00;100532.31;5131993;27;20043;-86
2022/05/18 05:07:13;;;;;;;5.13;1.58;;;;;;;12.30;100.00;100550.09;5138457;27;20053;-86
2022/05/18 05:09:40;;;;;;;7.20;1.55;;;;;;;11.70;100.00;100497.78;5143259;27;20054;-86
2022/05/18 05:12:08;;;;;;;6.93;1.67;;;;;;;12.08;100.00;100542.41;5146693;27;20051;-87
2022/05/18 05:14:39;;;;;;;6.13;1.50;;;;;;;12.15;100.00;100554.31;5146827;27;20058;-86
2022/05/18 05:17:06;;;;;;;8.77;1.90;;;;;;;11.90;100.00;100504.78;5149272;27;20530;-86
2022/05/18 05:19:36;;;;;;;8.82;1.70;;;;;;;11.89;100.00;100536.28;5150641;27;20053;-86
2022/05/18 05:22:03;;;;;;;11.02;2.17;;;;;;;11.95;100.00;100576.25;5149063;27;20043;-87
2022/05/18 05:24:30;;;;;;;8.90;2.40;;;;;;;12.19;100.00;100541.91;5152851;27;20050;-86
2022/05/18 05:26:57;;;;;;;8.73;2.30;;;;;;;12.00;100.00;100551.56;5145801;27;20057;-86
2022/05/18 05:29:24;;;;;;;9.27;2.45;;;;;;;12.07;100.00;100545.09;5147813;27;20054;-86
2022/05/18 05:31:50;;;;;;;14.75;3.58;;;;;;;12.05;100.00;100536.47;5146475;27;20053;-86
2022/05/18 05:34:18;;;;;;;11.75;2.42;;;;;;;11.88;100.00;100540.69;5148433;27;20073;-87
2022/05/18 05:36:45;;;;;;;11.40;3.25;;;;;;;12.05;100.00;100568.78;5143133;27;20480;-86
2022/05/18 05:39:11;;;;;;;11.85;2.65;;;;;;;12.12;100.00;100564.13;5144582;27;20049;-86
2022/05/18 05:41:42;;;;;;;12.65;2.95;;;;;;;12.50;100.00;100578.06;5150638;27;20050;-87
2022/05/18 05:44:10;;;;;;;11.07;2.78;;;;;;;12.52;100.00;100599.84;5142365;27;20042;-86
2022/05/18 05:46:37;;;;;;;12.52;2.72;;;;;;;12.51;100.00;100606.00;5147961;27;20125;-86
2022/05/18 05:49:04;;;;;;;10.23;2.10;;;;;;;12.29;100.00;100573.84;5143639;27;20044;-87
2022/05/18 05:51:31;;;;;;;10.85;2.80;;;;;;;12.21;100.00;100549.72;5147388;27;20047;-87
2022/05/18 05:53:58;;;;;;;11.82;2.50;;;;;;;12.38;100.00;100572.50;5146481;27;20047;-90
2022/05/18 05:56:24;;;;;;;9.57;2.60;;;;;;;12.81;100.00;100591.47;5154708;27;20051;-89
2022/05/18 05:58:51;;;;;;;14.40;2.95;;;;;;;13.68;100.00;100594.91;5154160;27;20110;-89
2022/05/18 06:01:18;;;;;;;16.15;3.42;;;;;;;14.14;100.00;100627.63;5154519;27;20139;-90
2022/05/18 06:03:46;;;;;;;11.48;1.83;;;;;;;14.46;100.00;100601.28;5162834;27;20492;-89
2022/05/18 06:06:14;;;;;;;10.68;2.58;;;;;;;14.69;100.00;100579.78;5155360;27;20070;-91
2022/05/18 06:08:44;;;;;;;13.15;2.70;;;;;;;15.35;100.00;100625.19;5149589;27;20367;-91
2022/05/18 06:11:11;;;;;;;8.18;1.65;;;;;;;15.16;100.00;100588.53;5146308;27;20130;-89
2022/05/18 06:13:40;;;;;;;14.55;2.08;;;;;;;15.81;100.00;100618.97;5174145;27;20066;-90
2022/05/18 06:16:12;;;;;;;12.95;2.03;;;;;;;15.56;100.00;100594.91;5154333;27;20070;-89
2022/05/18 06:18:40;;;;;;;10.15;2.17;;;;;;;16.18;100.00;100619.31;5142683;27;21193;-91
2022/05/18 06:21:09;;;;;;;9.65;1.65;;;;;;;15.85;100.00;100621.31;5146651;27;20487;-90
2022/05/18 06:23:36;;;;;;;9.50;1.98;;;;;;;16.02;100.00;100601.78;5139680;27;20051;-90
2022/05/18 06:26:05;;;;;;;13.05;2.92;;;;;;;15.70;100.00;100587.91;5150236;27;20137;-89
2022/05/18 06:28:36;;;;;;;13.32;2.47;;;;;;;15.62;100.00;100614.78;5143662;27;20040;-89
2022/05/18 06:31:04;;;;;;;11.55;2.55;;;;;;;15.57;100.00;100583.38;5150148;27;20043;-89
2022/05/18 06:33:32;;;;;;;9.05;2.00;;;;;;;16.18;100.00;100633.34;5150911;27;20063;-90
2022/05/18 06:35:59;;;;;;;11.43;3.15;;;;;;;15.35;100.00;100622.53;5142574;27;20058;-90
2022/05/18 06:38:26;;;;;;;12.20;2.75;;;;;;;17.04;100.00;100617.28;5143596;27;20041;-89
2022/05/18 06:43:40;;;;;;;15.88;2.70;;;;;;;16.61;100.00;100568.97;5145050;27;20055;-90
2022/05/18 06:46:07;;;;;;;12.85;2.60;;;;;;;17.99;100.00;100625.00;5147460;27;20054;-90
2022/05/18 06:48:34;;;;;;;14.02;2.90;;;;;;;17.02;100.00;100616.53;5140559;27;20049;-89
2022/05/18 06:51:14;;;;;;;11.25;2.50;;;;;;;18.01;100.00;100620.44;5147448;27;20050;-89
2022/05/18 06:53:41;;;;;;;8.35;1.77;;;;;;;16.81;100.00;100616.13;5154838;27;20660;-90
2022/05/18 06:56:08;;;;;;;12.27;2.40;;;;;;;17.14;100.00;100612.22;5150180;27;20091;-89
2022/05/18 06:58:35;;;;;;;10.70;2.65;;;;;;;17.03;100.00;100605.03;5151274;27;20039;-89
2022/05/18 07:01:02;;;;;;;10.55;2.13;;;;;;;17.27;100.00;100614.91;5147729;27;20053;-90
2022/05/18 07:03:30;;;;;;;10.10;2.10;;;;;;;17.26;100.00;100621.13;5149503;27;20049;-88
2022/05/18 07:05:57;;;;;;;9.82;1.80;;;;;;;17.17;100.00;100625.22;5157252;27;20072;-90
2022/05/18 07:08:24;;;;;;;9.48;2.08;;;;;;;16.72;100.00;100637.88;5155087;27;20392;-90
2022/05/18 07:10:51;;;;;;;9.70;1.90;;;;;;;17.46;100.00;100622.44;5154782;27;20051;-90
2022/05/18 07:13:18;;;;;;;9.68;1.75;;;;;;;18.24;100.00;100609.97;5149134;27;20051;-90
2022/05/18 07:15:45;;;;;;;8.80;1.85;;;;;;;17.99;100.00;100636.44;5137162;27;20077;-90
2022/05/18 07:18:13;;;;;;;8.48;1.60;;;;;;;18.74;100.00;100640.78;5155013;27;20076;-90
2022/05/18 07:20:40;;;;;;;11.18;2.10;;;;;;;18.38;100.00;100639.84;5154186;27;20049;-90
2022/05/18 07:23:07;;;;;;;14.93;2.30;;;;;;;18.05;100.00;100661.63;5154473;27;20054;-90
2022/05/18 07:25:34;;;;;;;11.52;2.03;;;;;;;18.31;100.00;100666.88;5152520;27;20046;-90
2022/05/18 07:28:02;;;;;;;7.78;1.90;;;;;;;17.48;100.00;100670.81;5147187;27;20442;-91
2022/05/18 07:30:46;;;;;;;10.05;2.15;;;;;;;17.30;100.00;100672.03;5154730;27;20070;-91
2022/05/18 07:33:13;;;;;;;13.00;1.90;;;;;;;17.39;100.00;100647.63;5147311;27;20047;-91
2022/05/18 07:35:40;;;;;;;8.68;1.90;;;;;;;17.39;100.00;100666.16;5133101;27;20058;-90
2022/05/18 07:38:07;;;;;;;9.15;1.73;;;;;;;18.17;100.00;100642.22;5140716;27;20134;-87
2022/05/18 07:40:54;;;;;;;11.07;2.67;;;;;;;17.43;100.00;100672.94;5134263;27;20055;-91
2022/05/18 07:43:21;;;;;;;10.98;2.15;;;;;;;16.89;100.00;100642.09;5150418;27;20142;-91
2022/05/18 07:45:49;;;;;;;13.15;2.45;;;;;;;16.91;100.00;100676.38;5153942;27;20133;-90
2022/05/18 07:48:19;;;;;;;14.20;2.80;;;;;;;16.01;100.00;100637.06;5155429;27;20141;-90
2022/05/18 07:50:46;;;;;;;10.77;2.30;;;;;;;16.08;100.00;100664.78;5154519;27;20464;-91
2022/05/18 07:53:14;;;;;;;7.18;1.77;;;;;;;15.93;100.00;100658.66;5147187;27;20053;-90
2022/05/18 07:55:40;;;;;;;11.15;2.13;;;;;;;16.28;100.00;100660.91;5145904;27;20079;-90
2022/05/18 07:58:10;;;;;;;9.25;1.90;;;;;;;16.37;100.00;100688.53;5143232;27;20050;-90
2022/05/18 08:00:37;;;;;;;13.73;2.20;;;;;;;16.25;100.00;100676.09;5134329;27;20055;-90
2022/05/18 08:03:04;;;;;;;11.43;2.92;;;;;;;16.33;100.00;100693.16;5134993;27;20693;-90
2022/05/18 08:05:33;;;;;;;20.35;3.58;;;;;;;15.84;100.00;100708.53;5134626;27;20050;-89
2022/05/18 08:08:05;;;;;;;11.02;1.98;;;;;;;15.94;100.00;100683.28;5154907;27;20381;-90
2022/05/18 08:16:04;;;;;;;7.78;1.75;;;;;;;16.87;100.00;100626.34;5152892;27;20053;-90
2022/05/18 08:18:31;;;;;;;10.13;1.92;;;;;;;17.33;100.00;100640.94;5153559;27;20051;-92
2022/05/18 08:20:58;;;;;;;8.43;2.10;;;;;;;18.42;100.00;100668.78;5136222;27;20047;-91
2022/05/18 08:23:25;;;;;;;11.23;2.25;;;;;;;18.88;96.08;100692.84;5147217;27;20048;-92
2022/05/18 08:25:54;;;;;;;10.27;1.70;;;;;;;18.59;100.00;100676.34;5149694;27;20480;-91
2022/05/18 08:28:22;;;;;;;13.07;2.53;;;;;;;18.94;95.96;100672.97;5136064;27;20125;-91
2022/05/18 08:30:48;;;;;;;11.13;2.22;;;;;;;18.53;91.25;100687.41;5154669;27;20053;-91
2022/05/18 08:33:15;;;;;;;11.15;2.45;;;;;;;19.12;88.14;100684.91;5149654;27;20039;-90
2022/05/18 08:35:44;;;;;;;12.07;2.83;;;;;;;18.63;86.19;100675.19;5133410;27;20053;-90
2022/05/18 08:38:11;;;;;;;11.10;2.38;;;;;;;18.55;84.56;100722.63;5134012;27;20054;-90
2022/05/18 08:40:47;;;;;;;7.90;1.50;;;;;;;18.79;88.04;100736.78;5134254;27;20505;-90
2022/05/18 08:43:42;;;;;;;10.35;1.77;;;;;;;18.50;84.29;100715.00;5134135;27;20050;-90
2022/05/18 08:46:18;;;;;;;10.02;1.70;;;;;;;18.27;83.58;100694.56;5137744;27;20046;-89
2022/05/18 08:48:51;;;;;;;10.68;1.90;;;;;;;18.33;82.82;100718.84;5153192;27;20089;-90
2022/05/18 08:51:51;;;;;;;9.98;1.95;;;;;;;18.85;83.35;100738.16;5154181;27;20047;-89
2022/05/18 08:54:36;;;;;;;8.30;2.00;;;;;;;18.28;80.85;100694.47;5151836;27;20061;-89
2022/05/18 08:57:07;;;;;;;9.35;1.92;;;;;;;18.79;81.94;100689.03;5154245;27;20054;-89
2022/05/18 08:59:38;;;;;;;5.68;1.50;;;;;;;19.65;80.00;100744.69;5155021;27;20078;-89
2022/05/18 09:02:16;;;;;;;12.02;2.38;;;;;;;19.87;79.69;100712.06;5154637;27;20051;-89
2022/05/18 09:04:51;;;;;;;10.50;1.92;;;;;;;19.79;77.19;100739.19;5136514;27;20075;-89
2022/05/18 09:07:46;;;;;;;8.63;2.13;;;;;;;20.00;75.34;100736.69;5133647;27;20050;-90
2022/05/18 09:10:29;;;;;;;11.00;2.00;;;;;;;19.72;73.77;100736.16;5133711;28;20047;-90
2022/05/18 09:12:56;;;;;;;;;;;;;;;20.08;73.39;100747.59;5134083;27;20141;-90
2022/05/18 09:15:50;;;;;;;9.80;1.83;;;;;;;19.98;72.24;100725.34;5134139;28;19930;-90
2022/05/18 09:18:39;;;;;;;9.75;1.90;;;;;;;18.85;74.52;100766.50;5126094;28;20047;-90
2022/05/18 09:21:32;;;;;;;9.98;1.98;;;;;;;18.93;71.76;100782.72;5133636;28;20050;-89
2022/05/18 09:24:21;;;;;;;7.53;1.75;;;;;;;17.83;75.31;100749.66;5140229;27;20046;-90
2022/05/18 09:27:21;;;;;;;7.90;1.75;;;;;;;18.14;73.81;100790.81;5154657;27;20411;-88
2022/05/18 09:29:54;;;;;;;7.70;1.40;;;;;;;18.40;76.23;100788.19;5152932;27;20057;-89
2022/05/18 09:32:28;;;;;;;8.80;2.28;;;;;;;17.66;74.08;100798.44;5153653;27;20054;-89
2022/05/18 09:34:55;;;;;;;6.85;1.45;;;;;;;17.75;74.21;100804.94;5136679;27;20114;-89
2022/05/18 09:37:41;;;;;;;9.32;1.88;;;;;;;17.40;73.54;100745.41;5151775;27;20046;-87
2022/05/18 09:40:17;;;;;;;9.25;1.52;;;;;;;17.19;71.70;100784.75;5157172;27;20059;-88
2022/05/18 09:42:55;;;;;;;9.63;1.60;;;;;;;17.54;72.52;100780.72;5155546;27;20047;-89
2022/05/18 09:45:26;;;;;;;5.88;1.52;;;;;;;17.14;73.76;100818.59;5134414;28;20658;-88
2022/05/18 09:48:06;;;;;;;8.77;1.80;;;;;;;17.86;74.18;100788.34;5137981;27;20110;-89
2022/05/18 09:50:36;;;;;;;8.88;1.73;;;;;;;17.54;72.92;100801.91;5137463;28;20085;-89
2022/05/18 09:53:04;;;;;;;8.20;1.35;;;;;;;18.11;71.67;100787.53;5138439;27;20125;-89
2022/05/18 09:55:32;;;;;;;6.32;1.33;;;;;;;18.56;72.66;100802.06;5140703;27;20047;-89
2022/05/18 09:58:03;;;;;;;7.45;1.48;;;;;;;19.18;71.53;100813.63;5158907;27;20075;-90
2022/05/18 10:00:33;;;;;;;6.35;1.25;;;;;;;18.29;69.31;100810.13;5161884;27;20068;-90
2022/05/18 10:08:53;;;;;;;5.78;1.42;;;;;;;17.56;68.87;100823.81;5161462;27;20043;-89
2022/05/18 10:11:33;;;;;;;11.18;1.75;;;;;;;18.02;71.04;100826.09;5161731;27;20049;-89
2022/05/18 10:14:37;;;;;;;11.15;1.83;;;;;;;18.21;71.00;100841.59;5151812;27;20468;-89
2022/05/18 10:17:07;;;;;;;7.50;1.67;;;;;;;18.25;73.16;100842.25;5143741;27;20050;-89
2022/05/18 10:19:43;;;;;;;5.45;1.38;;;;;;;18.44;68.11;100853.28;5154973;27;20396;-89
2022/05/18 10:22:12;;;;;;;6.80;1.67;;;;;;;18.02;66.11;100837.56;5162375;27;20054;-89
2022/05/18 10:24:50;;;;;;;4.97;1.25;;;;;;;18.15;66.79;100850.81;5146065;27;20053;-90
2022/05/18 10:27:17;;;;;;;6.95;1.23;;;;;;;18.16;66.44;100849.00;5156409;27;20077;-90
2022/05/18 10:29:49;;;;;;;6.93;1.40;;;;;;;18.27;68.47;100851.78;5162253;27;20043;-89
2022/05/18 10:32:27;;;;;;;4.85;1.08;;;;;;;18.31;68.75;100818.81;5163519;27;20073;-90
2022/05/18 10:34:55;;;;;;;10.88;1.75;;;;;;;18.79;66.72;100840.22;5138469;27;20047;-88
2022/05/18 10:37:34;;;;;;;4.95;1.33;;;;;;;18.67;66.90;100854.34;5150497;27;20053;-89
2022/05/18 10:40:12;;;;;;;6.88;1.40;;;;;;;18.59;65.64;100856.66;5156053;27;20047;-89
2022/05/18 10:42:45;;;;;;;8.40;1.45;;;;;;;18.81;66.48;100863.97;5155728;27;20052;-89
2022/05/18 10:45:27;;;;;;;9.02;1.55;;;;;;;18.28;65.06;100868.53;5145266;27;20133;-90
2022/05/18 10:48:02;;;;;;;7.73;1.57;;;;;;;18.14;65.18;100857.06;5155798;27;20134;-89
2022/05/18 10:50:39;;;;;;;7.22;1.25;;;;;;;17.86;65.39;100799.78;5154640;27;20043;-89
2022/05/18 10:53:17;;;;;;;8.15;1.48;;;;;;;17.80;66.81;100875.19;5154968;27;20130;-89
2022/05/18 10:55:56;;;;;;;7.70;1.60;;;;;;;18.13;65.06;100863.34;5137252;27;20054;-89
2022/05/18 10:58:39;;;;;;;7.28;1.77;;;;;;;18.80;65.24;100862.28;5134461;27;20139;-89
2022/05/18 11:01:19;;;;;;;11.70;1.63;;;;;;;18.69;63.84;100843.63;5134537;27;20508;-89
2022/05/18 11:04:12;;;;;;;8.13;1.40;;;;;;;19.16;63.08;100881.91;5148418;27;20049;-90
2022/05/18 11:06:41;;;;;;;11.35;1.98;;;;;;;18.77;63.37;100878.44;5115586;27;20059;-90
2022/05/18 11:09:22;;;;;;;8.70;1.50;;;;;;;18.72;62.86;100904.41;5153738;27;20057;-90
2022/05/18 11:12:31;;;;;;;8.95;1.73;;;;;;;18.57;63.59;100863.88;5153816;27;20065;-89
2022/05/18 11:15:02;;;;;;;7.65;1.70;;;;;;;19.48;63.92;100913.25;5110143;28;20059;-90
2022/05/18 11:17:39;;;;;;;5.33;1.30;;;;;;;19.67;62.92;100900.34;5130176;27;20070;-90
2022/05/18 11:20:16;;;;;;;12.13;2.00;;;;;;;19.80;61.30;100888.84;5144042;27;20039;-90
2022/05/18 11:22:55;;;;;;;7.70;1.40;;;;;;;20.06;60.22;100892.19;5133032;27;20453;-90
2022/05/18 11:25:31;;;;;;;10.98;1.80;;;;;;;20.36;58.35;100889.03;5132784;27;20100;-90
2022/05/18 11:28:33;;;;;;;8.10;1.40;;;;;;;19.99;57.78;100914.84;5134660;27;20523;-90
2022/05/18 11:31:32;;;;;;;7.13;1.52;;;;;;;20.53;58.36;100909.00;5132887;27;20049;-87
2022/05/18 11:33:59;;;;;;;6.63;1.40;;;;;;;20.69;56.87;100922.00;5135385;27;20142;-89
2022/05/18 11:36:34;;;;;;;6.93;1.55;;;;;;;20.38;55.97;100929.66;5132768;27;20047;-89
2022/05/18 11:39:36;;;;;;;10.82;2.00;;;;;;;20.21;57.84;100904.31;5133367;27;20063;-88
2022/05/18 11:42:12;;;;;;;5.53;1.30;;;;;;;20.52;58.02;100933.88;5132493;27;20051;-89
2022/05/18 11:44:52;;;;;;;8.93;1.60;;;;;;;20.41;57.20;100939.19;5150299;27;20076;-89
2022/05/18 11:48:07;;;;;;;6.40;1.38;;;;;;;20.91;55.89;100938.94;5137111;27;20057;-89
2022/05/18 11:51:10;;;;;;;5.60;1.60;;;;;;;19.80;56.90;100952.59;5088895;27;20046;-88
2022/05/18 11:54:00;;;;;;;9.40;1.50;;;;;;;19.85;57.42;100950.44;5145371;27;20039;-88